Terminal Aerodrome Forecast
Issued by NWS

Current Version | Previous Version | Graphics & Text | Print | Product List | Glossary On
Versions: 1 2 3 4 5 6 7 8 9 10 11 12 13 14 15 16 17 18 19 20 21 22 23 24 25 26 27
000
FTUS41 KRLX 251500 AAA
TAFCKB
TAF AMD
KCKB 251502Z 2515/2612 18008KT P6SM BKN050
     FM251800 20011G20KT P6SM BKN070
     FM252300 20007KT P6SM BKN060=

USA.gov is the U.S. government's official web portal to all federal, state and local government web resources and services.